Time;durP1;ratioP1;P1;durP2;ratioP2;P2;SDS_P1;SDS_P2;PMS_P1;PMS_P2;Temp;Humidity;BMP_temperature;BMP_pressure;BME280_temperature;BME280_humidity;BME280_pressure;Samples;Min_cycle;Max_cycle;Signal;HPM_P1;HPM_P2
2022/06/28 00:00:55;;;;;;;18.05;15.70;;;;;;;20.53;100.00;100886.41;4957692;28;20046;-81
2022/06/28 00:03:22;;;;;;;17.10;15.10;;;;;;;20.50;100.00;100876.72;4960099;28;20050;-81
2022/06/28 00:05:49;;;;;;;16.08;13.60;;;;;;;20.42;100.00;100888.81;4960391;28;20042;-80
2022/06/28 00:08:16;;;;;;;15.75;14.02;;;;;;;20.44;100.00;100885.13;4953386;28;20038;-80
2022/06/28 00:10:42;;;;;;;16.15;14.43;;;;;;;20.38;100.00;100896.19;4971097;28;20544;-81
2022/06/28 00:13:09;;;;;;;16.90;15.13;;;;;;;20.39;100.00;100911.31;4956602;28;20043;-81
2022/06/28 00:18:22;;;;;;;17.80;14.27;;;;;;;20.39;100.00;100921.19;4972928;28;20078;-81
2022/06/28 00:20:48;;;;;;;16.63;14.80;;;;;;;20.32;100.00;100925.19;4934097;28;20043;-81
2022/06/28 00:23:15;;;;;;;16.85;14.10;;;;;;;20.28;100.00;100921.81;4966232;28;20051;-81
2022/06/28 00:25:43;;;;;;;17.05;15.15;;;;;;;20.32;100.00;100927.88;4950907;28;20038;-81
2022/06/28 00:28:09;;;;;;;18.02;15.32;;;;;;;20.33;100.00;100933.13;4960157;28;20125;-81
2022/06/28 00:30:39;;;;;;;15.90;14.23;;;;;;;20.31;100.00;100934.19;4970646;28;20031;-81
2022/06/28 00:33:06;;;;;;;19.02;14.52;;;;;;;20.32;100.00;100938.59;4971719;28;20174;-81
2022/06/28 00:35:32;;;;;;;16.88;14.70;;;;;;;20.28;100.00;100948.66;4957350;28;20053;-80
2022/06/28 00:37:59;;;;;;;15.25;13.55;;;;;;;20.23;100.00;100946.22;4960197;28;20215;-81
2022/06/28 00:40:26;;;;;;;18.27;13.82;;;;;;;20.21;100.00;100948.13;4973827;28;20053;-81
2022/06/28 00:42:54;;;;;;;15.75;13.63;;;;;;;20.09;100.00;100948.78;4959212;28;20049;-81
2022/06/28 00:45:23;;;;;;;17.38;14.27;;;;;;;20.03;100.00;100933.06;4942451;28;20045;-80
2022/06/28 00:47:50;;;;;;;17.33;13.50;;;;;;;19.93;100.00;100934.53;4958774;28;20042;-81
2022/06/28 00:50:18;;;;;;;15.48;13.20;;;;;;;19.93;100.00;100937.19;4956389;28;20047;-81
2022/06/28 00:53:04;;;;;;;16.60;13.40;;;;;;;19.88;100.00;100937.44;4962523;28;20462;-81
2022/06/28 00:55:31;;;;;;;14.15;12.75;;;;;;;19.82;100.00;100947.63;4967937;28;20170;-80
2022/06/28 00:57:58;;;;;;;15.18;13.13;;;;;;;19.85;100.00;100953.69;4973742;28;20488;-81
2022/06/28 01:00:25;;;;;;;13.60;12.02;;;;;;;19.82;100.00;100966.38;4981906;28;20153;-81
2022/06/28 01:02:51;;;;;;;15.48;13.73;;;;;;;19.81;100.00;100960.16;4937763;28;20459;-81
2022/06/28 01:05:19;;;;;;;16.55;12.65;;;;;;;19.75;100.00;100951.56;4925324;28;20398;-81
2022/06/28 01:07:46;;;;;;;16.27;14.13;;;;;;;19.72;100.00;100951.75;4930871;28;20050;-81
2022/06/28 01:10:12;;;;;;;18.00;15.20;;;;;;;19.73;100.00;100951.66;4927273;28;20043;-81
2022/06/28 01:12:39;;;;;;;15.00;13.40;;;;;;;19.67;100.00;100958.25;4955260;28;20046;-82
2022/06/28 01:15:07;;;;;;;16.20;13.60;;;;;;;19.59;100.00;100965.84;4924834;28;20074;-81
2022/06/28 01:17:34;;;;;;;14.73;12.88;;;;;;;19.48;100.00;100978.00;4937955;28;20416;-81
2022/06/28 01:20:00;;;;;;;16.67;13.80;;;;;;;19.49;100.00;100985.97;4940975;28;20488;-81
2022/06/28 01:22:28;;;;;;;14.10;12.65;;;;;;;19.48;100.00;100994.94;4921928;28;20516;-81
2022/06/28 01:24:58;;;;;;;15.18;13.60;;;;;;;19.52;100.00;100996.53;4939054;28;20772;-81
2022/06/28 01:27:25;;;;;;;18.90;16.10;;;;;;;19.61;100.00;101001.44;4929533;28;20061;-81
2022/06/28 01:29:52;;;;;;;17.13;15.43;;;;;;;19.65;100.00;101005.69;4936554;28;20488;-81
2022/06/28 01:32:21;;;;;;;14.88;13.18;;;;;;;19.61;100.00;100997.91;4937620;28;20484;-81
2022/06/28 01:34:48;;;;;;;15.65;13.52;;;;;;;19.64;100.00;100987.00;4927769;28;20047;-81
2022/06/28 01:37:15;;;;;;;15.25;13.27;;;;;;;19.52;100.00;100993.88;4944799;28;20043;-80
2022/06/28 01:39:42;;;;;;;16.42;13.63;;;;;;;19.50;100.00;101005.59;4966341;28;20049;-80
2022/06/28 01:42:08;;;;;;;18.40;16.45;;;;;;;19.58;100.00;101006.09;4953699;28;20046;-80
2022/06/28 01:44:35;;;;;;;16.00;14.25;;;;;;;19.59;100.00;101005.13;4936863;28;20054;-80
2022/06/28 01:47:04;;;;;;;18.67;16.63;;;;;;;19.66;100.00;101002.06;4957839;28;20038;-80
2022/06/28 01:49:30;;;;;;;22.10;18.42;;;;;;;19.74;100.00;101008.84;4942692;28;20049;-81
2022/06/28 01:51:57;;;;;;;18.42;16.52;;;;;;;19.66;100.00;101004.72;4937697;28;20050;-80
2022/06/28 01:54:25;;;;;;;19.85;17.63;;;;;;;19.68;100.00;101016.28;4935874;28;20051;-81
2022/06/28 01:56:52;;;;;;;21.30;18.48;;;;;;;19.66;100.00;101007.41;4953541;28;20050;-80
2022/06/28 01:59:19;;;;;;;24.30;20.75;;;;;;;19.66;100.00;101007.41;4947869;28;20042;-80
2022/06/28 02:01:45;;;;;;;22.95;19.48;;;;;;;19.61;100.00;100997.91;4936293;29;20061;-80
2022/06/28 02:04:27;;;;;;;21.52;19.20;;;;;;;19.48;100.00;100994.94;4936822;28;20600;-80
2022/06/28 02:06:54;;;;;;;21.23;18.88;;;;;;;19.45;100.00;100989.75;4941811;28;20039;-80
2022/06/28 02:09:23;;;;;;;23.77;20.73;;;;;;;19.47;100.00;100995.91;4925322;28;20089;-80
2022/06/28 02:11:50;;;;;;;24.83;20.65;;;;;;;19.45;100.00;100995.13;4939130;29;20043;-81
2022/06/28 02:14:17;;;;;;;27.65;21.13;;;;;;;19.39;100.00;100984.72;4939967;28;20046;-81
2022/06/28 02:16:44;;;;;;;23.48;20.30;;;;;;;19.33;100.00;101001.09;4923290;28;20054;-82
2022/06/28 02:19:11;;;;;;;21.33;19.10;;;;;;;19.20;100.00;101013.41;4956812;28;20701;-81
2022/06/28 02:21:42;;;;;;;22.73;19.17;;;;;;;19.22;100.00;101023.09;4958809;28;20035;-81
2022/06/28 02:24:10;;;;;;;21.17;18.67;;;;;;;19.12;100.00;101022.69;4942791;28;20070;-80
2022/06/28 02:26:37;;;;;;;23.20;18.88;;;;;;;19.06;100.00;101031.00;4946743;28;20042;-80
2022/06/28 02:29:05;;;;;;;24.35;19.80;;;;;;;19.07;100.00;101029.22;4941769;28;20043;-81
2022/06/28 02:31:31;;;;;;;20.80;18.30;;;;;;;19.06;100.00;101039.06;4942175;28;20057;-81
2022/06/28 02:33:58;;;;;;;20.92;17.73;;;;;;;18.99;100.00;101042.97;4941530;28;20054;-80
2022/06/28 02:41:49;;;;;;;19.15;16.25;;;;;;;18.88;100.00;101073.91;4926346;28;20047;-81
2022/06/28 02:44:16;;;;;;;19.08;16.30;;;;;;;18.91;100.00;101076.41;4925894;28;20496;-81
2022/06/28 02:46:43;;;;;;;21.15;17.65;;;;;;;18.97;100.00;101089.53;4942477;28;20047;-81
2022/06/28 02:49:09;;;;;;;21.70;18.30;;;;;;;19.00;100.00;101100.06;4956058;28;20069;-81
2022/06/28 02:51:36;;;;;;;22.65;17.27;;;;;;;18.99;100.00;101099.19;4943177;28;20101;-81
2022/06/28 02:54:06;;;;;;;19.23;17.10;;;;;;;18.97;100.00;101092.19;4940207;28;20137;-82
2022/06/28 02:56:32;;;;;;;19.42;15.73;;;;;;;18.94;100.00;101085.19;4945915;28;20066;-81
2022/06/28 02:58:59;;;;;;;19.00;16.02;;;;;;;18.93;100.00;101094.16;4954975;28;20043;-81
2022/06/28 03:01:26;;;;;;;21.02;17.75;;;;;;;18.93;100.00;101099.53;4957706;28;20507;-80
2022/06/28 03:03:53;;;;;;;18.52;15.13;;;;;;;18.93;100.00;101098.66;4956951;28;20050;-80
2022/06/28 03:06:19;;;;;;;19.70;16.35;;;;;;;18.94;100.00;101101.25;4955770;28;20052;-80
2022/06/28 03:08:46;;;;;;;20.88;16.92;;;;;;;18.91;100.00;101116.56;4976970;28;20042;-79
2022/06/28 03:11:13;;;;;;;19.85;16.23;;;;;;;18.86;100.00;101127.53;4992335;28;20059;-80
2022/06/28 03:13:39;;;;;;;21.08;15.60;;;;;;;18.84;100.00;101122.25;4943598;28;20396;-81
2022/06/28 03:16:06;;;;;;;19.73;16.65;;;;;;;18.82;100.00;101129.47;4974264;28;20050;-81
2022/06/28 03:18:33;;;;;;;17.75;14.60;;;;;;;18.79;100.00;101123.41;4958635;28;20129;-80
2022/06/28 03:21:00;;;;;;;18.10;13.90;;;;;;;18.75;100.00;101143.19;4943262;28;20054;-80
2022/06/28 03:23:27;;;;;;;17.27;14.38;;;;;;;18.73;100.00;101159.34;4957731;28;20050;-81
2022/06/28 03:25:53;;;;;;;20.23;15.90;;;;;;;18.77;100.00;101162.75;4988468;28;20045;-81
2022/06/28 03:28:20;;;;;;;20.48;16.23;;;;;;;18.80;100.00;101168.81;4968431;28;20043;-81
2022/06/28 03:30:51;;;;;;;20.23;15.80;;;;;;;18.74;100.00;101182.47;4960109;28;20488;-80
2022/06/28 03:33:18;;;;;;;18.13;14.27;;;;;;;18.71;100.00;101187.13;4960165;28;20043;-80
2022/06/28 03:35:45;;;;;;;17.65;14.25;;;;;;;18.72;100.00;101188.84;4958918;28;20166;-81
2022/06/28 03:38:11;;;;;;;21.55;15.95;;;;;;;18.72;100.00;101188.84;4978516;28;20042;-81
2022/06/28 03:40:38;;;;;;;17.77;13.55;;;;;;;18.66;100.00;101186.44;4983498;28;20045;-81
2022/06/28 03:43:06;;;;;;;18.95;14.63;;;;;;;18.68;100.00;101181.94;4963176;28;20046;-81
2022/06/28 03:45:32;;;;;;;16.98;13.57;;;;;;;18.63;100.00;101179.41;4973869;28;20411;-81
2022/06/28 03:48:07;;;;;;;17.67;13.55;;;;;;;18.68;100.00;101189.97;4980398;28;20142;-81
2022/06/28 03:50:33;;;;;;;17.60;14.32;;;;;;;18.63;100.00;101192.78;4952003;28;20158;-83
2022/06/28 03:53:00;;;;;;;19.98;15.43;;;;;;;18.64;100.00;101190.97;4963100;28;20555;-82
2022/06/28 03:55:27;;;;;;;20.98;15.38;;;;;;;18.61;100.00;101192.00;4977885;28;20053;-82
2022/06/28 03:57:53;;;;;;;18.50;15.25;;;;;;;18.66;100.00;101194.47;4963226;28;20046;-82
2022/06/28 04:00:20;;;;;;;19.83;14.27;;;;;;;18.72;100.00;101194.22;4952795;28;20048;-82
2022/06/28 04:02:47;;;;;;;18.13;13.82;;;;;;;18.70;100.00;101188.94;4964273;28;20051;-82
2022/06/28 04:05:15;;;;;;;20.25;15.05;;;;;;;18.71;100.00;101197.84;4963882;28;20051;-83
2022/06/28 04:07:42;;;;;;;17.55;14.30;;;;;;;18.64;100.00;101191.84;4976406;28;20038;-82
2022/06/28 04:10:09;;;;;;;20.65;14.07;;;;;;;18.64;100.00;101180.28;4963549;28;20043;-82
2022/06/28 04:12:36;;;;;;;17.40;13.48;;;;;;;18.60;100.00;101179.56;4958123;28;20688;-82
2022/06/28 04:15:04;;;;;;;18.27;13.43;;;;;;;18.56;100.00;101177.94;4948075;28;20093;-81
2022/06/28 04:17:31;;;;;;;16.42;13.35;;;;;;;18.55;100.00;101173.53;4975917;28;20042;-82
2022/06/28 04:19:59;;;;;;;19.90;14.18;;;;;;;18.54;100.00;101172.66;4976638;28;20058;-80
2022/06/28 04:22:26;;;;;;;18.17;13.10;;;;;;;18.53;100.00;101165.59;4943933;28;20049;-81
2022/06/28 04:24:52;;;;;;;19.73;13.90;;;;;;;18.56;100.00;101165.44;4960181;28;20084;-81
2022/06/28 04:27:19;;;;;;;14.27;11.27;;;;;;;18.54;100.00;101163.78;4960240;28;20050;-81
2022/06/28 04:29:46;;;;;;;17.67;11.98;;;;;;;18.56;100.00;101173.47;4968817;28;20753;-80
2022/06/28 04:32:13;;;;;;;16.60;12.07;;;;;;;18.58;100.00;101170.72;4972143;28;20047;-81
2022/06/28 04:34:40;;;;;;;13.75;11.20;;;;;;;18.56;100.00;101165.44;4974658;28;20042;-82
2022/06/28 04:37:07;;;;;;;16.45;11.38;;;;;;;18.56;100.00;101162.75;4970075;28;20113;-82
2022/06/28 04:39:33;;;;;;;14.55;10.20;;;;;;;18.54;100.00;101169.13;4960139;28;20534;-82
2022/06/28 04:42:02;;;;;;;13.30;9.38;;;;;;;18.51;100.00;101167.47;4954718;28;20100;-82
2022/06/28 04:44:29;;;;;;;13.75;10.27;;;;;;;18.54;100.00;101170.00;4972289;28;20038;-82
2022/06/28 04:46:56;;;;;;;14.13;10.05;;;;;;;18.51;100.00;101170.16;4962354;28;20101;-83
2022/06/28 04:49:23;;;;;;;12.48;8.63;;;;;;;18.47;100.00;101168.53;4942589;28;20038;-80
2022/06/28 04:51:50;;;;;;;12.75;9.65;;;;;;;18.52;100.00;101161.19;4976056;28;20066;-82
2022/06/28 04:54:16;;;;;;;10.43;7.80;;;;;;;18.50;100.00;101162.19;4957042;28;20054;-82
2022/06/28 04:56:43;;;;;;;13.18;8.88;;;;;;;18.52;100.00;101161.19;4980062;28;20561;-81
2022/06/28 04:59:10;;;;;;;10.52;8.25;;;;;;;18.51;100.00;101156.78;4935106;28;20109;-82
2022/06/28 05:01:37;;;;;;;12.00;8.38;;;;;;;18.54;100.00;101159.28;4978351;28;20101;-81
2022/06/28 05:04:04;;;;;;;9.95;8.10;;;;;;;18.50;100.00;101156.84;4947625;28;20153;-82
2022/06/28 05:06:31;;;;;;;12.15;8.40;;;;;;;18.48;100.00;101153.34;4944311;28;20042;-81
2022/06/28 05:08:58;;;;;;;9.45;7.22;;;;;;;18.52;100.00;101154.97;4943975;28;20046;-81
2022/06/28 05:11:45;;;;;;;8.02;5.90;;;;;;;18.22;100.00;101165.22;4991117;28;20054;-82
2022/06/28 05:14:12;;;;;;;9.18;5.75;;;;;;;18.24;100.00;101161.56;4990771;28;20042;-83
2022/06/28 05:16:39;;;;;;;7.10;5.60;;;;;;;18.25;100.00;101157.06;4975217;28;20508;-81
2022/06/28 05:19:07;;;;;;;12.55;6.38;;;;;;;18.23;100.00;101158.91;4975441;28;20132;-83
2022/06/28 05:21:34;;;;;;;6.90;5.47;;;;;;;18.19;100.00;101160.88;4946180;28;20042;-80
2022/06/28 05:24:00;;;;;;;6.47;5.18;;;;;;;18.14;100.00;101156.66;4989836;23;20142;-76
2022/06/28 05:26:27;;;;;;;7.35;5.40;;;;;;;18.03;100.00;101172.31;4986967;28;20053;-77
2022/06/28 05:28:53;;;;;;;5.00;4.47;;;;;;;17.95;100.00;101176.19;4973141;28;20054;-78
2022/06/28 05:31:20;;;;;;;5.28;4.78;;;;;;;17.96;100.00;101180.59;5008832;28;20052;-77
2022/06/28 05:33:47;;;;;;;5.05;3.97;;;;;;;17.83;100.00;101190.06;5010559;28;20584;-77
2022/06/28 05:36:14;;;;;;;5.35;4.50;;;;;;;17.81;100.00;101193.72;4992602;28;20034;-78
2022/06/28 05:38:40;;;;;;;5.47;4.80;;;;;;;17.84;100.00;101188.28;4991614;28;20061;-79
2022/06/28 05:41:08;;;;;;;5.45;4.15;;;;;;;17.81;100.00;101201.75;4966112;28;20046;-77
2022/06/28 05:43:35;;;;;;;4.80;4.30;;;;;;;17.84;100.00;101202.50;5004444;28;20100;-78
2022/06/28 05:46:02;;;;;;;4.82;3.70;;;;;;;17.75;100.00;101204.69;4995815;28;20050;-78
2022/06/28 05:48:29;;;;;;;4.35;3.85;;;;;;;17.71;100.00;101201.25;4954740;28;20038;-78
2022/06/28 05:50:56;;;;;;;3.58;3.03;;;;;;;17.68;100.00;101201.38;4998881;28;20046;-77
2022/06/28 05:53:22;;;;;;;4.00;3.03;;;;;;;17.66;100.00;101200.56;4984998;28;20104;-78
2022/06/28 05:55:49;;;;;;;4.18;2.88;;;;;;;17.58;100.00;101194.66;5009613;28;20041;-77
2022/06/28 05:58:16;;;;;;;3.53;3.17;;;;;;;17.66;100.00;101189.88;5003182;28;20034;-78
2022/06/28 06:00:43;;;;;;;3.70;3.40;;;;;;;17.64;100.00;101189.91;4969340;28;20068;-78
2022/06/28 06:03:10;;;;;;;3.58;2.25;;;;;;;17.70;100.00;101178.16;5008062;28;20034;-78
2022/06/28 06:05:37;;;;;;;3.17;2.15;;;;;;;17.59;100.00;101175.03;4991981;28;20041;-78
2022/06/28 06:08:04;;;;;;;5.32;2.60;;;;;;;17.54;100.00;101175.19;4977679;28;20042;-80
2022/06/28 06:10:31;;;;;;;2.38;2.10;;;;;;;17.32;100.00;101166.31;4992217;28;20046;-79
2022/06/28 06:12:57;;;;;;;2.75;2.40;;;;;;;17.29;100.00;101161.97;4974370;28;20058;-78
2022/06/28 06:15:24;;;;;;;2.45;2.00;;;;;;;17.31;100.00;101164.56;4989638;28;20053;-78
2022/06/28 06:17:50;;;;;;;2.33;1.77;;;;;;;17.35;100.00;101180.44;4978072;28;20042;-80
2022/06/28 06:20:17;;;;;;;3.90;1.65;;;;;;;17.35;100.00;101171.56;4976534;28;20053;-77
2022/06/28 06:22:47;;;;;;;3.22;1.92;;;;;;;17.30;100.00;101177.06;5009563;28;20510;-79
2022/06/28 06:25:13;;;;;;;1.70;1.60;;;;;;;17.34;100.00;101184.03;5000812;28;20050;-77
2022/06/28 06:27:41;;;;;;;2.13;1.83;;;;;;;17.37;100.00;101188.38;4993668;28;20049;-77
2022/06/28 06:30:08;;;;;;;1.67;1.50;;;;;;;17.38;100.00;101190.97;4976441;28;20426;-78
2022/06/28 06:32:35;;;;;;;1.73;1.63;;;;;;;17.37;100.00;101189.25;4987645;28;20038;-77
2022/06/28 06:35:03;;;;;;;2.13;1.65;;;;;;;17.36;100.00;101200.00;4990016;28;20053;-78
2022/06/28 06:37:29;;;;;;;2.03;1.60;;;;;;;17.42;100.00;101197.97;4977396;28;20045;-78
2022/06/28 06:39:56;;;;;;;3.25;2.33;;;;;;;17.49;100.00;101197.69;4970691;28;20042;-77
2022/06/28 06:42:23;;;;;;;1.70;1.60;;;;;;;17.50;100.00;101205.66;5001131;28;20045;-78
2022/06/28 06:44:49;;;;;;;2.25;1.60;;;;;;;17.62;100.00;101214.97;4999561;28;20042;-78
2022/06/28 06:47:16;;;;;;;1.98;1.60;;;;;;;17.76;100.00;101209.09;4996460;28;20454;-78
2022/06/28 06:49:43;;;;;;;1.90;1.60;;;;;;;17.86;100.00;101210.44;5000047;28;20529;-78
2022/06/28 06:52:09;;;;;;;1.45;1.35;;;;;;;17.92;100.00;101221.75;4994337;28;20046;-76
2022/06/28 06:54:36;;;;;;;2.35;1.83;;;;;;;18.02;100.00;101224.03;4975315;28;20038;-78
2022/06/28 06:57:03;;;;;;;1.90;1.60;;;;;;;18.12;100.00;101231.59;4984025;28;20042;-79
2022/06/28 06:59:30;;;;;;;2.33;1.70;;;;;;;18.14;100.00;101236.88;4973014;28;20057;-79
2022/06/28 07:01:57;;;;;;;1.70;1.60;;;;;;;18.22;100.00;101240.09;4951163;28;20144;-79
2022/06/28 07:04:23;;;;;;;2.38;1.48;;;;;;;18.17;100.00;101236.78;4994087;28;20050;-78
2022/06/28 07:06:58;;;;;;;3.67;1.77;;;;;;;18.22;100.00;101256.16;5007636;28;20121;-79
2022/06/28 07:09:24;;;;;;;2.47;1.50;;;;;;;18.30;100.00;101254.00;5002527;28;20034;-77
2022/06/28 07:11:51;;;;;;;1.92;1.60;;;;;;;18.07;100.00;101251.44;4981982;28;20061;-77
2022/06/28 07:14:18;;;;;;;1.80;1.55;;;;;;;18.12;100.00;101255.66;4977225;28;20068;-79
2022/06/28 07:16:45;;;;;;;2.47;1.65;;;;;;;18.17;100.00;101260.84;4999631;28;20041;-78
2022/06/28 07:19:13;;;;;;;3.00;2.08;;;;;;;18.20;100.00;101255.34;4972767;28;20101;-79
2022/06/28 07:21:40;;;;;;;3.17;1.50;;;;;;;18.21;100.00;101257.09;4962038;28;20038;-80
2022/06/28 07:24:09;;;;;;;3.08;1.63;;;;;;;18.16;100.00;101253.72;4994305;28;20764;-78
2022/06/28 07:26:36;;;;;;;2.40;1.60;;;;;;;18.21;100.00;101263.31;4969584;28;20038;-78
2022/06/28 07:29:04;;;;;;;1.92;1.65;;;;;;;18.26;100.00;101276.50;4979116;28;20510;-78
2022/06/28 07:31:36;;;;;;;1.98;1.67;;;;;;;18.29;100.00;101279.91;4972220;28;20084;-79
2022/06/28 07:34:03;;;;;;;2.88;1.80;;;;;;;18.32;100.00;101286.03;4987302;28;20045;-79
2022/06/28 07:36:30;;;;;;;2.75;1.70;;;;;;;18.39;100.00;101299.09;4975579;28;20426;-77
2022/06/28 07:38:57;;;;;;;1.70;1.33;;;;;;;18.29;100.00;101293.25;4990375;28;20061;-78
2022/06/28 07:41:23;;;;;;;1.70;1.60;;;;;;;18.29;100.00;101301.28;4975765;28;20041;-79
2022/06/28 07:43:53;;;;;;;2.50;1.40;;;;;;;18.31;100.00;101305.69;4973305;28;20056;-78
2022/06/28 07:46:20;;;;;;;1.60;1.40;;;;;;;18.29;100.00;101311.13;4996073;28;20042;-77
2022/06/28 07:48:47;;;;;;;1.70;1.60;;;;;;;18.39;100.00;101315.16;5002963;28;20049;-78
2022/06/28 07:53:59;;;;;;;2.15;1.40;;;;;;;18.47;100.00;101321.03;4995772;28;20045;-78
2022/06/28 07:56:26;;;;;;;1.95;1.75;;;;;;;18.61;100.00;101330.28;5016117;28;20100;-78
2022/06/28 07:58:52;;;;;;;2.47;1.50;;;;;;;18.77;100.00;101331.41;5005649;28;20522;-79
2022/06/28 08:01:20;;;;;;;1.50;1.40;;;;;;;18.79;100.00;101341.09;4989979;28;20096;-80
2022/06/28 08:03:47;;;;;;;2.40;1.80;;;;;;;18.80;100.00;101341.97;5013640;28;20076;-79
2022/06/28 08:06:14;;;;;;;1.75;1.42;;;;;;;18.83;100.00;101347.16;4974860;28;20057;-81
2022/06/28 08:08:41;;;;;;;1.48;1.35;;;;;;;19.01;100.00;101357.09;4992679;28;20050;-79
2022/06/28 08:11:09;;;;;;;1.55;1.27;;;;;;;19.20;100.00;101354.47;5001712;28;20487;-79
2022/06/28 08:13:37;;;;;;;2.08;1.60;;;;;;;19.42;100.00;101354.31;4984435;28;20049;-81
2022/06/28 08:16:05;;;;;;;2.15;1.52;;;;;;;19.56;100.00;101353.69;4981595;28;20049;-79
2022/06/28 08:18:31;;;;;;;1.60;1.42;;;;;;;19.61;100.00;101365.13;5003770;28;20042;-80
2022/06/28 08:20:59;;;;;;;1.95;1.58;;;;;;;19.52;100.00;101366.38;5013319;28;20053;-80
2022/06/28 08:23:26;;;;;;;1.65;1.40;;;;;;;19.39;100.00;101367.88;4982864;28;20050;-78
2022/06/28 08:25:53;;;;;;;3.13;1.60;;;;;;;19.45;100.00;101367.59;4997605;28;20052;-77
2022/06/28 08:28:19;;;;;;;1.48;1.30;;;;;;;19.39;100.00;101367.88;5001145;28;20077;-78
2022/06/28 08:30:47;;;;;;;2.05;1.50;;;;;;;19.28;100.00;101373.72;4983038;28;20045;-80
2022/06/28 08:33:14;;;;;;;1.85;1.60;;;;;;;19.33;100.00;101376.19;4984779;28;20042;-79
2022/06/28 08:35:41;;;;;;;2.00;1.38;;;;;;;19.39;100.00;101368.75;4981435;28;20588;-77
2022/06/28 08:38:08;;;;;;;2.38;1.42;;;;;;;19.50;100.00;101378.97;5019375;28;20049;-79
2022/06/28 08:40:35;;;;;;;1.38;1.27;;;;;;;19.49;100.00;101374.53;5035863;28;20072;-77
2022/06/28 08:43:05;;;;;;;2.63;1.77;;;;;;;19.35;100.00;101371.66;4985845;28;20053;-79
2022/06/28 08:45:32;;;;;;;2.38;1.77;;;;;;;19.45;100.00;101386.38;4999704;28;20038;-79
2022/06/28 08:48:04;;;;;;;3.10;1.90;;;;;;;19.48;100.00;101383.53;4988032;28;20069;-79
2022/06/28 08:50:34;;;;;;;2.53;1.50;;;;;;;19.30;100.00;101393.28;4990457;28;20534;-78
2022/06/28 08:53:03;;;;;;;1.52;1.42;;;;;;;19.41;100.00;101395.47;4979570;28;20137;-78
2022/06/28 08:55:31;;;;;;;2.33;1.30;;;;;;;19.35;100.00;101398.44;4989611;28;20049;-80
2022/06/28 08:58:04;;;;;;;2.13;1.50;;;;;;;19.31;100.00;101392.34;4983375;28;20499;-78
2022/06/28 09:00:31;;;;;;;3.25;1.40;;;;;;;19.30;100.00;101397.78;4992233;28;20038;-78
2022/06/28 09:02:57;;;;;;;2.20;1.40;;;;;;;19.31;100.00;101404.88;4990012;28;20038;-78
2022/06/28 09:05:25;;;;;;;2.72;1.52;;;;;;;19.41;100.00;101401.69;4972237;28;20050;-80
2022/06/28 09:07:56;;;;;;;1.30;1.20;;;;;;;19.48;100.00;101407.66;4997231;28;20069;-78
2022/06/28 09:10:23;;;;;;;2.22;1.40;;;;;;;19.65;100.00;101407.78;5000284;28;20038;-78
2022/06/28 09:13:13;;;;;;;1.60;1.30;;;;;;;19.91;100.00;101414.59;4966431;28;20042;-81
2022/06/28 09:15:55;;;;;;;2.63;1.38;;;;;;;19.93;99.13;101422.59;4973515;28;20046;-80
2022/06/28 09:18:25;;;;;;;2.70;1.42;;;;;;;20.03;100.00;101421.22;5001165;28;20048;-79
2022/06/28 09:20:55;;;;;;;1.50;1.40;;;;;;;19.99;96.15;101427.66;4976338;28;20031;-80
2022/06/28 09:23:21;;;;;;;1.67;1.30;;;;;;;20.04;97.28;101420.25;4978360;28;20048;-79
2022/06/28 09:25:49;;;;;;;1.90;1.27;;;;;;;20.12;96.72;101427.94;5008354;28;20406;-79
2022/06/28 09:28:28;;;;;;;1.50;1.40;;;;;;;20.16;97.25;101434.88;4978763;28;20049;-80
2022/06/28 09:31:13;;;;;;;2.35;1.40;;;;;;;20.17;94.09;101439.31;4973339;28;20104;-80
2022/06/28 09:34:04;;;;;;;2.03;1.40;;;;;;;20.14;97.77;101434.09;5002515;28;20561;-79
2022/06/28 09:36:57;;;;;;;1.38;1.27;;;;;;;20.15;93.66;101441.19;5010197;28;20065;-79
2022/06/28 09:39:28;;;;;;;2.13;1.40;;;;;;;20.03;94.98;101440.00;4991303;28;20126;-78
2022/06/28 09:41:56;;;;;;;2.42;1.52;;;;;;;20.01;98.40;101447.25;4993575;28;20040;-80
2022/06/28 09:44:50;;;;;;;1.65;1.20;;;;;;;19.90;100.00;101449.53;4988744;28;20042;-80
2022/06/28 09:47:17;;;;;;;1.30;1.20;;;;;;;19.81;100.00;101445.47;4954520;28;20046;-79
2022/06/28 09:49:46;;;;;;;1.85;1.45;;;;;;;19.95;97.06;101442.16;4990878;28;20038;-78
2022/06/28 09:52:14;;;;;;;1.80;1.42;;;;;;;19.97;99.32;101440.28;4956851;28;20069;-80
2022/06/28 09:54:42;;;;;;;1.33;1.20;;;;;;;20.16;100.00;101445.63;4972544;28;20046;-79
2022/06/28 09:57:12;;;;;;;2.13;1.52;;;;;;;20.39;95.92;101434.66;4977332;28;20042;-80
2022/06/28 09:59:39;;;;;;;2.63;1.70;;;;;;;20.87;90.81;101429.63;4957292;28;20034;-81
2022/06/28 10:02:12;;;;;;;2.10;1.40;;;;;;;21.34;90.06;101433.41;4974424;28;20034;-79
2022/06/28 10:04:39;;;;;;;2.20;1.80;;;;;;;21.70;92.39;101424.34;4975803;28;20069;-80
2022/06/28 10:07:12;;;;;;;2.38;1.35;;;;;;;21.91;84.60;101430.34;4991531;28;20507;-79
2022/06/28 10:09:39;;;;;;;1.70;1.30;;;;;;;21.99;81.73;101435.28;4954888;28;20046;-80
2022/06/28 10:15:01;;;;;;;2.15;1.55;;;;;;;22.09;83.56;101426.66;5005851;28;20049;-79
2022/06/28 10:17:47;;;;;;;2.00;1.23;;;;;;;23.06;83.16;101421.91;4978058;28;20128;-79
2022/06/28 10:20:22;;;;;;;1.50;1.40;;;;;;;23.67;73.45;101419.97;4973143;28;20408;-76
2022/06/28 10:22:50;;;;;;;1.75;1.40;;;;;;;23.94;69.19;101423.59;4980181;28;20541;-78
2022/06/28 10:25:24;;;;;;;2.08;1.70;;;;;;;23.90;71.65;101427.47;4964297;28;20130;-78
2022/06/28 10:27:52;;;;;;;1.50;1.35;;;;;;;23.58;69.59;101432.19;5034098;28;20041;-79
2022/06/28 10:30:23;;;;;;;2.00;1.50;;;;;;;23.23;73.12;101437.94;5012024;28;20072;-78
2022/06/28 10:33:03;;;;;;;2.75;1.60;;;;;;;22.81;75.65;101433.25;5014482;28;20042;-79
2022/06/28 10:35:34;;;;;;;2.20;1.45;;;;;;;22.44;74.15;101434.53;4958614;28;20042;-79
2022/06/28 10:38:07;;;;;;;1.52;1.42;;;;;;;22.27;78.09;101435.50;5011648;28;20054;-78
2022/06/28 10:40:41;;;;;;;1.48;1.38;;;;;;;21.96;76.87;101427.41;4988119;28;20485;-80
2022/06/28 10:43:33;;;;;;;1.35;1.20;;;;;;;21.93;80.79;101431.13;4997276;28;20046;-80
2022/06/28 10:46:05;;;;;;;2.08;1.27;;;;;;;21.86;79.60;101429.72;4995821;28;20048;-79
2022/06/28 10:48:47;;;;;;;2.17;1.60;;;;;;;21.88;78.57;101425.13;4996824;28;20041;-79
2022/06/28 10:51:14;;;;;;;3.30;1.50;;;;;;;21.89;79.91;101416.97;4996312;28;20411;-80
2022/06/28 10:54:06;;;;;;;2.97;1.52;;;;;;;22.25;78.85;101415.88;4973257;28;20080;-79
2022/06/28 10:56:38;;;;;;;2.38;1.40;;;;;;;22.94;76.78;101414.56;4994383;28;20048;-80
2022/06/28 10:59:13;;;;;;;1.40;1.30;;;;;;;23.27;66.83;101411.63;4956209;28;20060;-81
2022/06/28 11:01:39;;;;;;;2.05;1.20;;;;;;;23.62;62.96;101397.81;4977143;28;20038;-78
2022/06/28 11:04:18;;;;;;;1.20;1.10;;;;;;;23.94;58.65;101402.00;4984194;28;20145;-80
2022/06/28 11:06:48;;;;;;;1.45;1.30;;;;;;;24.01;61.37;101402.50;4989833;28;20042;-79
2022/06/28 11:09:20;;;;;;;1.40;1.30;;;;;;;24.26;60.58;101399.06;4977276;28;20052;-79
2022/06/28 11:12:13;;;;;;;2.63;1.35;;;;;;;24.71;62.48;101398.69;4978042;28;20041;-81
2022/06/28 11:14:53;;;;;;;1.42;1.30;;;;;;;25.19;60.21;101395.44;5006663;28;20081;-78
2022/06/28 11:17:26;;;;;;;1.55;1.33;;;;;;;25.89;58.59;101397.69;4969698;28;20042;-80
2022/06/28 11:19:55;;;;;;;2.88;1.15;;;;;;;26.09;53.97;101397.09;4983377;28;20050;-79
2022/06/28 11:22:27;;;;;;;1.35;1.25;;;;;;;25.34;52.79;101396.22;4977774;28;20045;-79
2022/06/28 11:24:55;;;;;;;1.58;1.10;;;;;;;25.16;55.48;101393.84;5071299;23;20053;-80
2022/06/28 11:27:22;;;;;;;3.00;1.10;;;;;;;24.94;53.28;101399.81;4983216;28;20039;-82
2022/06/28 11:29:52;;;;;;;1.73;1.30;;;;;;;24.60;50.68;101398.56;4979196;28;20054;-82
2022/06/28 11:32:22;;;;;;;2.13;1.38;;;;;;;24.63;53.76;101390.25;4978007;28;20154;-83